sensor_id;sensor_type;location;lat;lon;timestamp;pressure;altitude;pressure_sealevel;temperature;humidity
79127;BME280;68528;48.814;8.904;2023-03-11T21:50:56;95953.47;;;24.22;35.07
79127;BME280;68528;48.814;8.904;2023-03-11T21:53:22;95952.59;;;23.94;35.85
79127;BME280;68528;48.814;8.904;2023-03-11T22:07:50;96009.50;;;-0.10;57.31
79127;BME280;68528;48.814;8.904;2023-03-11T22:10:16;96005.97;;;-1.04;60.11
79127;BME280;68528;48.814;8.904;2023-03-11T22:12:42;95990.59;;;-2.49;65.60
79127;BME280;68528;48.814;8.904;2023-03-11T22:15:08;95934.94;;;-3.50;68.26
79127;BME280;68528;48.814;8.904;2023-03-11T22:17:33;95928.06;;;-3.80;70.08
79127;BME280;68528;48.814;8.904;2023-03-11T22:19:58;95916.78;;;-4.24;72.10
79127;BME280;68528;48.814;8.904;2023-03-11T22:22:25;95956.31;;;-4.21;73.60
79127;BME280;68528;48.814;8.904;2023-03-11T22:24:51;95974.81;;;-4.01;73.73
79127;BME280;68528;48.814;8.904;2023-03-11T22:27:16;96006.69;;;-4.05;73.92
79127;BME280;68528;48.814;8.904;2023-03-11T22:29:42;95961.56;;;-4.40;74.46
79127;BME280;68528;48.814;8.904;2023-03-11T22:32:08;95998.69;;;-4.05;74.03
79127;BME280;68528;48.814;8.904;2023-03-11T22:34:34;95997.78;;;-3.95;74.58
79127;BME280;68528;48.814;8.904;2023-03-11T22:37:01;95994.47;;;-4.11;75.04
79127;BME280;68528;48.814;8.904;2023-03-11T22:39:26;95993.63;;;-4.06;76.06
79127;BME280;68528;48.814;8.904;2023-03-11T22:41:52;95911.09;;;-4.75;76.47
79127;BME280;68528;48.814;8.904;2023-03-11T22:44:19;96000.50;;;-4.29;76.72
79127;BME280;68528;48.814;8.904;2023-03-11T22:46:44;95921.75;;;-4.70;76.76
79127;BME280;68528;48.814;8.904;2023-03-11T22:49:10;95907.06;;;-4.72;78.01
79127;BME280;68528;48.814;8.904;2023-03-11T22:51:35;95994.81;;;-4.22;78.78
79127;BME280;68528;48.814;8.904;2023-03-11T22:54:25;95991.03;;;-4.16;78.38
79127;BME280;68528;48.814;8.904;2023-03-11T22:57:04;95937.75;;;-4.65;78.66
79127;BME280;68528;48.814;8.904;2023-03-11T22:59:30;95986.97;;;-4.42;79.00
79127;BME280;68528;48.814;8.904;2023-03-11T23:02:06;95989.97;;;-4.49;79.00
79127;BME280;68528;48.814;8.904;2023-03-11T23:04:33;96006.22;;;-4.45;78.70
79127;BME280;68528;48.814;8.904;2023-03-11T23:06:58;96005.41;;;-4.41;78.18
79127;BME280;68528;48.814;8.904;2023-03-11T23:09:24;95946.78;;;-4.61;78.98
79127;BME280;68528;48.814;8.904;2023-03-11T23:11:50;95993.00;;;-4.60;77.28
79127;BME280;68528;48.814;8.904;2023-03-11T23:14:16;96010.00;;;-4.46;79.25
79127;BME280;68528;48.814;8.904;2023-03-11T23:16:41;95980.59;;;-4.46;78.49
79127;BME280;68528;48.814;8.904;2023-03-11T23:19:26;95988.72;;;-4.61;78.42
79127;BME280;68528;48.814;8.904;2023-03-11T23:21:54;96011.06;;;-4.47;78.74
79127;BME280;68528;48.814;8.904;2023-03-11T23:24:20;96007.34;;;-4.51;78.46
79127;BME280;68528;48.814;8.904;2023-03-11T23:26:45;96003.94;;;-4.62;78.67
79127;BME280;68528;48.814;8.904;2023-03-11T23:29:10;95950.22;;;-4.94;79.75
79127;BME280;68528;48.814;8.904;2023-03-11T23:31:36;95974.44;;;-4.81;79.56
79127;BME280;68528;48.814;8.904;2023-03-11T23:34:01;96014.81;;;-4.48;79.96
79127;BME280;68528;48.814;8.904;2023-03-11T23:36:28;95998.97;;;-4.73;79.39
79127;BME280;68528;48.814;8.904;2023-03-11T23:39:03;95869.19;;;-5.47;79.98
79127;BME280;68528;48.814;8.904;2023-03-11T23:41:31;95952.09;;;-4.95;79.50
79127;BME280;68528;48.814;8.904;2023-03-11T23:44:02;95995.81;;;-4.81;79.87
79127;BME280;68528;48.814;8.904;2023-03-11T23:46:28;95931.97;;;-5.16;79.77
79127;BME280;68528;48.814;8.904;2023-03-11T23:48:53;96024.50;;;-4.57;79.99
79127;BME280;68528;48.814;8.904;2023-03-11T23:51:19;95967.09;;;-4.99;79.80
79127;BME280;68528;48.814;8.904;2023-03-11T23:53:45;95995.94;;;-4.62;80.41
79127;BME280;68528;48.814;8.904;2023-03-11T23:56:14;95975.84;;;-4.54;81.37
79127;BME280;68528;48.814;8.904;2023-03-11T23:58:41;95989.84;;;-4.67;80.11
